Time;durP1;ratioP1;P1;durP2;ratioP2;P2;SDS_P1;SDS_P2;PMS_P1;PMS_P2;Temp;Humidity;BMP_temperature;BMP_pressure;BME280_temperature;BME280_humidity;BME280_pressure;Samples;Min_cycle;Max_cycle;Signal;HPM_P1;HPM_P2
2021/09/06 00:00:59;;;;;;;2.60;1.30;;;15.90;99.90;;;;;;4979141;28;20495;-89
2021/09/06 00:03:27;;;;;;;1.73;1.20;;;15.90;99.90;;;;;;4978772;28;20464;-89
2021/09/06 00:05:53;;;;;;;1.10;0.70;;;15.80;99.90;;;;;;4978913;28;20882;-89
2021/09/06 00:08:20;;;;;;;1.80;1.20;;;15.80;99.90;;;;;;4979801;28;20553;-89
2021/09/06 00:10:50;;;;;;;0.70;0.70;;;15.80;99.90;;;;;;4978770;28;21532;-89
2021/09/06 00:13:18;;;;;;;2.17;1.10;;;15.80;99.90;;;;;;4979043;28;20828;-89
2021/09/06 00:15:44;;;;;;;2.27;0.90;;;15.80;99.90;;;;;;4979167;28;20454;-89
2021/09/06 00:18:11;;;;;;;2.33;1.03;;;15.70;99.90;;;;;;4978881;28;20466;-89
2021/09/06 00:20:40;;;;;;;2.77;1.17;;;15.70;99.90;;;;;;4978504;28;20440;-89
2021/09/06 00:23:07;;;;;;;3.23;0.90;;;15.60;99.90;;;;;;4979587;28;20467;-89
2021/09/06 00:25:34;;;;;;;1.20;0.80;;;15.60;99.90;;;;;;4979251;28;20457;-89
2021/09/06 00:28:01;;;;;;;1.97;1.13;;;15.50;99.90;;;;;;4978908;28;20817;-89
2021/09/06 00:30:28;;;;;;;1.00;0.77;;;15.50;99.90;;;;;;4978969;28;20454;-89
2021/09/06 00:32:55;;;;;;;0.83;0.70;;;15.40;99.90;;;;;;4978522;28;20457;-89
2021/09/06 00:35:21;;;;;;;0.90;0.90;;;15.40;99.90;;;;;;4978632;28;20434;-89
2021/09/06 00:37:49;;;;;;;0.83;0.70;;;15.40;99.90;;;;;;4978337;28;20444;-89
2021/09/06 00:40:16;;;;;;;0.97;0.70;;;15.40;99.90;;;;;;4978416;28;20434;-89
2021/09/06 00:42:43;;;;;;;1.00;0.90;;;15.40;99.90;;;;;;4978240;28;20481;-89
2021/09/06 00:45:11;;;;;;;1.40;0.80;;;15.40;99.90;;;;;;4980462;28;20468;-90
2021/09/06 00:47:39;;;;;;;1.37;1.27;;;15.40;99.90;;;;;;4985871;28;20453;-89
2021/09/06 00:50:09;;;;;;;1.63;0.90;;;15.40;99.90;;;;;;4978840;28;20437;-89
2021/09/06 00:52:37;;;;;;;2.33;1.00;;;15.50;99.90;;;;;;4978549;28;20465;-89
2021/09/06 00:55:07;;;;;;;0.87;0.70;;;15.50;99.90;;;;;;4977996;28;20460;-89
2021/09/06 00:57:34;;;;;;;2.43;1.10;;;15.50;99.90;;;;;;4978305;28;20433;-89
2021/09/06 01:00:01;;;;;;;2.83;1.23;;;15.50;99.90;;;;;;4977831;28;20438;-89
2021/09/06 01:02:28;;;;;;;1.17;1.00;;;15.40;99.90;;;;;;4977466;28;20484;-89
2021/09/06 01:04:55;;;;;;;1.00;0.83;;;15.40;99.90;;;;;;4978036;28;20481;-89
2021/09/06 01:07:22;;;;;;;2.70;1.10;;;15.40;99.90;;;;;;4978104;28;20460;-89
2021/09/06 01:09:49;;;;;;;2.17;2.03;;;15.40;99.90;;;;;;4977881;28;20437;-89
2021/09/06 01:12:17;;;;;;;1.33;0.73;;;15.40;99.90;;;;;;4977675;28;20484;-89
2021/09/06 01:14:44;;;;;;;2.70;1.40;;;15.40;99.90;;;;;;4977958;28;20481;-89
2021/09/06 01:17:11;;;;;;;4.93;2.27;;;15.30;99.90;;;;;;4977848;28;20818;-89
2021/09/06 01:19:38;;;;;;;3.60;1.93;;;15.30;99.90;;;;;;4977799;28;20523;-88
2021/09/06 01:22:07;;;;;;;3.40;1.90;;;15.20;99.90;;;;;;4977457;28;20928;-89
2021/09/06 01:24:34;;;;;;;2.30;2.10;;;15.20;99.90;;;;;;4978288;28;20560;-89
2021/09/06 01:27:02;;;;;;;6.70;1.90;;;15.10;99.90;;;;;;4977715;28;20516;-89
2021/09/06 01:29:29;;;;;;;3.07;2.43;;;15.10;99.90;;;;;;4977651;28;20444;-89
2021/09/06 01:31:56;;;;;;;6.33;2.57;;;15.20;99.90;;;;;;4977875;28;20461;-89
2021/09/06 01:34:22;;;;;;;3.60;1.87;;;15.20;99.90;;;;;;4977643;28;20473;-89
2021/09/06 01:36:49;;;;;;;1.27;1.10;;;15.20;99.90;;;;;;4977302;28;20477;-89
2021/09/06 01:39:16;;;;;;;2.00;1.00;;;15.20;99.90;;;;;;4977456;28;20457;-89
2021/09/06 01:41:43;;;;;;;0.73;0.73;;;15.20;99.90;;;;;;4977289;28;20481;-89
2021/09/06 01:44:11;;;;;;;1.70;1.00;;;15.20;99.90;;;;;;4977247;28;20484;-88
2021/09/06 01:46:37;;;;;;;3.13;1.27;;;15.10;99.90;;;;;;4977514;28;20442;-89
2021/09/06 01:49:05;;;;;;;1.50;1.40;;;15.10;99.90;;;;;;4977176;28;20445;-89
2021/09/06 01:51:31;;;;;;;1.40;1.10;;;15.10;99.90;;;;;;4977356;28;20414;-89
2021/09/06 01:53:58;;;;;;;3.20;0.83;;;15.00;99.90;;;;;;4976890;28;20454;-89
2021/09/06 01:56:25;;;;;;;3.13;1.10;;;15.00;99.90;;;;;;4977005;28;20556;-89
2021/09/06 01:58:52;;;;;;;2.07;1.20;;;15.00;99.90;;;;;;4977449;28;20452;-89
2021/09/06 02:01:21;;;;;;;7.80;2.40;;;14.90;99.90;;;;;;4977126;28;20810;-89
2021/09/06 02:03:48;;;;;;;3.13;0.90;;;14.90;99.90;;;;;;4976725;28;20977;-89
2021/09/06 02:06:15;;;;;;;2.10;1.47;;;14.90;99.90;;;;;;4976897;28;20816;-89
2021/09/06 02:08:41;;;;;;;2.27;1.00;;;14.90;99.90;;;;;;4976971;28;20457;-89
2021/09/06 02:11:08;;;;;;;0.60;0.60;;;14.80;99.90;;;;;;4977165;28;20488;-89
2021/09/06 02:13:35;;;;;;;1.93;1.57;;;14.80;99.90;;;;;;4976099;28;20480;-88
2021/09/06 02:16:02;;;;;;;1.63;0.77;;;14.70;99.90;;;;;;4977104;28;20461;-88
2021/09/06 02:18:30;;;;;;;1.30;1.20;;;14.70;99.90;;;;;;4976304;28;20438;-89
2021/09/06 02:20:57;;;;;;;1.40;1.30;;;14.70;99.90;;;;;;4976979;28;20454;-88
2021/09/06 02:23:24;;;;;;;1.20;0.90;;;14.70;99.90;;;;;;4976339;28;20493;-89
2021/09/06 02:25:51;;;;;;;2.03;0.90;;;14.60;99.90;;;;;;4976357;28;20441;-89
2021/09/06 02:28:17;;;;;;;2.00;1.30;;;14.60;99.90;;;;;;4976275;28;20442;-89
2021/09/06 02:30:44;;;;;;;2.40;1.13;;;14.60;99.90;;;;;;4976251;28;20472;-89
2021/09/06 02:33:11;;;;;;;2.17;1.30;;;14.60;99.90;;;;;;4976202;28;20977;-89
2021/09/06 02:35:39;;;;;;;3.03;1.27;;;14.50;99.90;;;;;;4976402;28;20434;-89
2021/09/06 02:38:06;;;;;;;1.17;0.80;;;14.50;99.90;;;;;;4976260;28;20451;-89
2021/09/06 02:40:33;;;;;;;2.30;1.43;;;14.40;99.90;;;;;;4976015;28;20446;-89
2021/09/06 02:43:00;;;;;;;2.90;0.97;;;14.40;99.90;;;;;;4976329;28;20830;-89
2021/09/06 02:45:26;;;;;;;3.70;1.20;;;14.40;99.90;;;;;;4975940;28;20532;-89
2021/09/06 02:47:53;;;;;;;1.23;0.70;;;14.40;99.90;;;;;;4975971;28;20457;-89
2021/09/06 02:50:20;;;;;;;0.73;0.63;;;14.40;99.90;;;;;;4976462;28;20458;-89
2021/09/06 02:52:48;;;;;;;1.80;0.87;;;14.40;99.90;;;;;;4976315;28;20441;-88
2021/09/06 02:55:15;;;;;;;1.20;1.13;;;14.50;99.90;;;;;;4984548;28;20463;-89
2021/09/06 02:57:42;;;;;;;1.33;1.20;;;14.50;99.90;;;;;;4976372;28;20442;-89
2021/09/06 03:00:10;;;;;;;1.20;1.10;;;14.50;99.90;;;;;;4975846;28;20457;-89
2021/09/06 03:02:37;;;;;;;1.70;1.10;;;14.40;99.90;;;;;;4975797;28;20513;-89
2021/09/06 03:05:06;;;;;;;1.53;0.90;;;14.40;99.90;;;;;;4975550;28;20485;-89
2021/09/06 03:07:33;;;;;;;2.37;1.17;;;14.30;99.90;;;;;;4976022;28;20449;-89
2021/09/06 03:10:01;;;;;;;1.27;1.00;;;14.30;99.90;;;;;;4975818;28;20449;-88
2021/09/06 03:12:28;;;;;;;2.83;1.23;;;14.30;99.90;;;;;;4975662;28;20481;-89
2021/09/06 03:14:54;;;;;;;1.53;0.70;;;14.20;99.90;;;;;;4975908;28;20500;-89
2021/09/06 03:17:21;;;;;;;1.60;1.50;;;14.20;99.90;;;;;;4975773;28;20483;-89
2021/09/06 03:19:48;;;;;;;1.43;0.80;;;14.20;99.90;;;;;;4975614;28;20438;-89
2021/09/06 03:22:16;;;;;;;1.80;1.00;;;14.20;99.90;;;;;;4975340;28;20485;-89
2021/09/06 03:24:43;;;;;;;1.17;1.17;;;14.20;99.90;;;;;;4975034;28;20508;-89
2021/09/06 03:27:11;;;;;;;3.60;1.13;;;14.20;99.90;;;;;;4975564;28;20449;-88
2021/09/06 03:29:38;;;;;;;1.33;0.73;;;14.20;99.90;;;;;;4975856;28;20458;-89
2021/09/06 03:32:05;;;;;;;1.97;1.00;;;14.20;99.90;;;;;;4975670;28;20461;-89
2021/09/06 03:34:32;;;;;;;1.67;0.60;;;14.20;99.90;;;;;;4975265;28;20457;-89
2021/09/06 03:36:58;;;;;;;1.73;1.57;;;14.10;99.90;;;;;;4975185;28;20829;-88
2021/09/06 03:39:25;;;;;;;0.90;0.77;;;14.10;99.90;;;;;;4975407;28;20823;-88
2021/09/06 03:41:52;;;;;;;7.00;1.17;;;14.10;99.90;;;;;;4975346;28;20438;-88
2021/09/06 03:44:20;;;;;;;2.33;1.07;;;14.10;99.90;;;;;;4975221;28;21011;-89
2021/09/06 03:46:47;;;;;;;1.43;0.70;;;14.10;99.90;;;;;;4975534;28;20479;-89
2021/09/06 03:49:14;;;;;;;3.00;1.00;;;14.10;99.90;;;;;;4975968;28;20806;-89
2021/09/06 03:51:40;;;;;;;1.87;1.47;;;14.10;99.90;;;;;;4975497;28;20459;-89
2021/09/06 03:54:07;;;;;;;1.90;1.10;;;14.10;99.90;;;;;;4975381;28;20485;-88
2021/09/06 03:56:34;;;;;;;2.87;1.87;;;14.10;99.90;;;;;;4974926;28;20442;-88
2021/09/06 03:59:01;;;;;;;0.93;0.93;;;14.10;99.90;;;;;;4974944;28;20456;-88
2021/09/06 04:01:29;;;;;;;1.30;1.00;;;14.10;99.90;;;;;;4975006;28;20514;-88
2021/09/06 04:03:55;;;;;;;1.57;1.17;;;14.00;99.90;;;;;;4974674;28;20485;-87
2021/09/06 04:06:22;;;;;;;1.87;0.80;;;13.90;99.90;;;;;;4975060;28;20442;-88
2021/09/06 04:08:49;;;;;;;0.50;0.50;;;13.90;99.90;;;;;;4975025;28;20457;-88
2021/09/06 04:11:16;;;;;;;1.33;1.23;;;13.90;99.90;;;;;;4974841;28;20496;-88
2021/09/06 04:13:44;;;;;;;0.80;0.70;;;13.90;99.90;;;;;;4974796;28;20473;-88
2021/09/06 04:16:10;;;;;;;0.60;0.60;;;13.80;99.90;;;;;;4974925;28;20564;-88
2021/09/06 04:18:39;;;;;;;1.67;1.03;;;13.80;99.90;;;;;;4974809;28;20448;-88
2021/09/06 04:21:05;;;;;;;2.57;1.23;;;13.80;99.90;;;;;;4974518;28;20801;-88
2021/09/06 04:23:32;;;;;;;2.83;1.33;;;13.70;99.90;;;;;;4974772;28;20485;-88
2021/09/06 04:26:00;;;;;;;0.90;0.83;;;13.70;99.90;;;;;;4974599;28;20816;-88
2021/09/06 04:28:27;;;;;;;2.00;1.00;;;13.70;99.90;;;;;;4974436;28;20457;-88
2021/09/06 04:30:54;;;;;;;2.07;1.07;;;13.70;99.90;;;;;;4974389;28;20440;-88
2021/09/06 04:33:21;;;;;;;2.03;1.07;;;13.70;99.90;;;;;;4974867;28;20489;-88
2021/09/06 04:35:49;;;;;;;2.40;0.87;;;13.70;99.90;;;;;;4974837;28;20476;-88
2021/09/06 04:38:16;;;;;;;0.60;0.60;;;13.70;99.90;;;;;;4978495;28;20438;-88
2021/09/06 04:40:42;;;;;;;0.80;0.80;;;13.60;99.90;;;;;;4978468;28;20453;-88
2021/09/06 04:43:09;;;;;;;1.10;0.77;;;13.60;99.90;;;;;;4978075;28;20491;-88
2021/09/06 04:45:36;;;;;;;1.50;0.67;;;13.60;99.90;;;;;;4977982;28;20441;-88
2021/09/06 04:48:03;;;;;;;2.77;1.13;;;13.60;99.90;;;;;;4977984;28;20442;-87
2021/09/06 04:50:30;;;;;;;0.60;0.60;;;13.70;99.90;;;;;;4977949;28;20442;-88
2021/09/06 04:52:58;;;;;;;2.63;1.27;;;13.70;99.90;;;;;;4977971;28;20967;-88
2021/09/06 04:55:25;;;;;;;1.63;0.90;;;13.60;99.90;;;;;;4977668;28;20512;-88
2021/09/06 04:57:52;;;;;;;1.70;1.10;;;13.70;99.90;;;;;;4977908;28;20448;-88
2021/09/06 05:00:19;;;;;;;0.97;0.97;;;13.60;99.90;;;;;;4978106;28;20453;-95
2021/09/06 05:02:46;;;;;;;0.70;0.70;;;13.60;99.90;;;;;;4979970;28;20487;-88
2021/09/06 05:05:13;;;;;;;1.73;0.67;;;13.60;99.90;;;;;;4977660;28;20469;-88
2021/09/06 05:07:40;;;;;;;2.80;0.70;;;13.60;99.90;;;;;;4977650;28;20461;-88
2021/09/06 05:10:09;;;;;;;0.73;0.70;;;13.60;99.90;;;;;;4977929;28;20533;-88
2021/09/06 05:12:35;;;;;;;1.20;1.10;;;13.60;99.90;;;;;;4977715;28;20469;-88
2021/09/06 05:15:02;;;;;;;2.10;1.43;;;13.70;99.90;;;;;;4977688;28;20473;-88
2021/09/06 05:17:29;;;;;;;1.90;0.93;;;13.70;99.90;;;;;;4977661;28;20450;-88
2021/09/06 05:19:56;;;;;;;2.07;1.70;;;13.70;99.90;;;;;;4977603;28;20453;-88
2021/09/06 05:22:22;;;;;;;1.50;1.03;;;13.70;99.90;;;;;;4977606;28;20811;-88
2021/09/06 05:24:53;;;;;;;1.60;0.80;;;13.70;99.90;;;;;;4977514;28;20454;-88
2021/09/06 05:27:21;;;;;;;1.80;1.17;;;13.70;99.90;;;;;;4978051;28;20445;-88
2021/09/06 05:29:48;;;;;;;2.00;0.80;;;13.70;99.90;;;;;;4977603;28;20460;-87
2021/09/06 05:32:15;;;;;;;1.10;0.80;;;13.70;99.90;;;;;;4977303;28;20452;-88
2021/09/06 05:34:41;;;;;;;1.90;1.50;;;13.70;99.90;;;;;;4977096;28;20478;-88
2021/09/06 05:37:08;;;;;;;1.43;0.83;;;13.70;99.90;;;;;;4977463;28;20457;-88
2021/09/06 05:39:35;;;;;;;3.03;1.30;;;13.80;99.90;;;;;;4977783;28;20457;-88
2021/09/06 05:42:02;;;;;;;2.83;1.20;;;13.70;99.90;;;;;;4977682;28;20816;-88
2021/09/06 05:44:30;;;;;;;1.70;0.63;;;13.80;99.90;;;;;;4976977;28;20484;-88
2021/09/06 05:46:57;;;;;;;1.10;0.90;;;13.80;99.90;;;;;;4977074;28;20442;-87
2021/09/06 05:49:24;;;;;;;2.23;0.63;;;13.80;99.90;;;;;;4976216;28;20440;-89
2021/09/06 05:51:50;;;;;;;2.37;1.30;;;13.80;99.90;;;;;;4977011;28;20449;-87
2021/09/06 05:54:17;;;;;;;1.13;0.97;;;13.80;99.90;;;;;;4977042;28;20487;-84
2021/09/06 05:56:44;;;;;;;1.30;1.30;;;13.80;99.90;;;;;;4976714;28;20450;-87
2021/09/06 05:59:11;;;;;;;1.13;0.60;;;13.90;99.90;;;;;;4977099;28;20472;-87
2021/09/06 06:01:39;;;;;;;3.60;0.93;;;13.90;99.90;;;;;;4977036;28;20461;-87
2021/09/06 06:04:05;;;;;;;1.30;1.07;;;14.00;99.90;;;;;;4976811;28;20497;-87
2021/09/06 06:06:32;;;;;;;3.43;1.20;;;14.00;99.90;;;;;;4976857;28;20817;-88
2021/09/06 06:08:59;;;;;;;2.60;1.07;;;14.10;99.90;;;;;;4976636;28;20441;-87
2021/09/06 06:11:26;;;;;;;4.03;0.90;;;14.10;99.90;;;;;;4976576;28;20485;-88
2021/09/06 06:13:52;;;;;;;0.60;0.60;;;14.10;99.90;;;;;;4976957;28;20849;-87
2021/09/06 06:16:19;;;;;;;1.37;0.80;;;14.20;99.90;;;;;;4976723;28;20444;-88
2021/09/06 06:18:47;;;;;;;2.17;1.00;;;14.20;99.90;;;;;;4976763;28;20457;-87
2021/09/06 06:21:14;;;;;;;2.00;1.23;;;14.30;99.90;;;;;;4976543;28;20449;-87
2021/09/06 06:23:41;;;;;;;1.43;1.23;;;14.40;99.90;;;;;;4976490;28;20492;-88
2021/09/06 06:26:08;;;;;;;1.20;1.10;;;14.60;99.90;;;;;;4976373;28;20437;-88
2021/09/06 06:28:34;;;;;;;2.80;1.20;;;14.70;99.90;;;;;;4976760;28;20453;-88
2021/09/06 06:31:01;;;;;;;1.47;1.07;;;14.90;99.90;;;;;;4976484;28;20800;-87
2021/09/06 06:33:30;;;;;;;2.30;0.90;;;15.10;99.90;;;;;;4976372;28;20485;-87
2021/09/06 06:35:59;;;;;;;2.73;1.37;;;15.30;99.90;;;;;;4976504;28;20796;-87
2021/09/06 06:38:25;;;;;;;1.03;0.70;;;15.40;99.90;;;;;;4976219;28;20445;-87
2021/09/06 06:40:52;;;;;;;1.97;1.80;;;15.50;99.90;;;;;;4976435;28;20446;-87
2021/09/06 06:43:19;;;;;;;2.10;0.87;;;15.60;99.90;;;;;;4976029;28;20488;-87
2021/09/06 06:45:46;;;;;;;0.90;0.90;;;15.70;99.90;;;;;;4975906;28;20437;-87
2021/09/06 06:48:13;;;;;;;2.20;1.00;;;15.80;99.90;;;;;;4976215;28;20446;-88
2021/09/06 06:50:39;;;;;;;1.70;1.00;;;15.90;99.90;;;;;;4976085;28;20453;-87
2021/09/06 06:53:07;;;;;;;4.40;2.13;;;16.00;99.90;;;;;;4976026;28;20461;-88
2021/09/06 06:55:34;;;;;;;6.53;1.43;;;16.00;99.90;;;;;;4976332;28;20445;-87
2021/09/06 06:58:01;;;;;;;2.10;1.20;;;16.10;99.90;;;;;;4976055;28;20450;-88
2021/09/06 07:00:28;;;;;;;1.23;0.90;;;16.20;99.90;;;;;;4975665;28;20449;-87
2021/09/06 07:02:54;;;;;;;2.70;2.03;;;16.20;99.90;;;;;;4975754;28;20530;-87
2021/09/06 07:05:21;;;;;;;1.93;1.20;;;16.30;99.90;;;;;;4975744;28;20461;-87
2021/09/06 07:07:48;;;;;;;1.53;1.40;;;16.40;99.90;;;;;;4975326;28;20452;-84
2021/09/06 07:10:16;;;;;;;1.53;1.20;;;16.50;99.90;;;;;;4975061;28;20457;-85
2021/09/06 07:12:43;;;;;;;2.73;2.10;;;16.60;99.90;;;;;;4975168;28;20479;-85
2021/09/06 07:15:11;;;;;;;1.57;1.33;;;16.70;99.90;;;;;;4974758;28;20474;-85
2021/09/06 07:17:39;;;;;;;2.57;1.40;;;16.80;99.90;;;;;;4975037;28;20460;-85
2021/09/06 07:20:07;;;;;;;2.77;1.40;;;16.90;99.90;;;;;;4975464;28;20824;-88
2021/09/06 07:22:34;;;;;;;2.33;1.63;;;17.10;99.90;;;;;;4975753;28;20438;-87
2021/09/06 07:25:01;;;;;;;2.20;1.33;;;17.20;99.90;;;;;;4975412;28;20489;-88
2021/09/06 07:27:29;;;;;;;2.17;1.43;;;17.40;99.90;;;;;;4975678;28;20442;-88
2021/09/06 07:29:56;;;;;;;1.50;1.00;;;17.50;99.90;;;;;;4975782;28;20444;-88
2021/09/06 07:35:17;;;;;;;1.20;1.10;;;17.90;99.90;;;;;;5081973;23;20617;-88
2021/09/06 07:37:44;;;;;;;1.77;1.00;;;18.10;99.90;;;;;;4975600;28;20453;-88
2021/09/06 07:40:12;;;;;;;2.20;1.13;;;18.40;99.90;;;;;;4975913;28;20480;-88
2021/09/06 07:42:41;;;;;;;0.90;0.90;;;18.50;99.90;;;;;;4975259;28;20460;-86
2021/09/06 07:45:10;;;;;;;2.13;1.47;;;18.70;99.90;;;;;;4975233;28;20489;-87
2021/09/06 07:47:38;;;;;;;1.90;1.60;;;18.90;99.90;;;;;;4975417;28;20448;-87
2021/09/06 07:50:07;;;;;;;1.90;1.53;;;19.00;99.90;;;;;;4975198;28;20446;-87
2021/09/06 07:52:35;;;;;;;3.10;1.10;;;19.20;99.90;;;;;;4975563;28;20445;-87
2021/09/06 07:55:02;;;;;;;1.60;1.40;;;19.30;99.90;;;;;;4974604;28;20473;-86
2021/09/06 07:57:29;;;;;;;1.87;1.30;;;19.50;99.90;;;;;;4974893;28;20437;-86
2021/09/06 07:59:57;;;;;;;1.20;1.10;;;19.50;99.90;;;;;;4975068;28;20461;-87
2021/09/06 08:02:23;;;;;;;1.30;1.20;;;19.60;99.90;;;;;;4975164;28;20450;-87
2021/09/06 08:04:50;;;;;;;1.10;1.10;;;19.80;99.90;;;;;;4974734;28;20520;-87
2021/09/06 08:07:17;;;;;;;1.30;1.20;;;20.00;99.90;;;;;;4974691;28;20449;-87
2021/09/06 08:09:44;;;;;;;4.60;1.50;;;20.30;99.90;;;;;;4974985;28;20463;-86
2021/09/06 08:12:11;;;;;;;4.97;1.17;;;20.50;99.90;;;;;;4976758;28;20457;-87
2021/09/06 08:14:38;;;;;;;1.20;1.10;;;20.70;99.90;;;;;;4979129;28;20500;-86
2021/09/06 08:17:07;;;;;;;1.13;1.03;;;20.90;99.90;;;;;;4978868;28;20446;-87
2021/09/06 08:19:33;;;;;;;1.93;0.90;;;21.10;99.90;;;;;;4979137;28;20577;-87
2021/09/06 08:22:01;;;;;;;0.97;0.87;;;21.20;99.90;;;;;;4978834;28;20456;-87
2021/09/06 08:24:27;;;;;;;1.80;1.53;;;21.30;99.90;;;;;;4978643;28;20500;-81
2021/09/06 08:26:54;;;;;;;1.70;0.83;;;21.30;99.90;;;;;;4977663;28;20417;-81
2021/09/06 08:29:22;;;;;;;3.17;1.27;;;21.30;99.90;;;;;;4978402;28;20441;-88
2021/09/06 08:31:49;;;;;;;3.63;1.97;;;21.40;99.90;;;;;;4978392;28;20436;-87
2021/09/06 08:34:17;;;;;;;2.90;1.20;;;21.50;99.90;;;;;;4978434;28;20481;-89
2021/09/06 08:36:45;;;;;;;1.00;1.00;;;21.50;99.90;;;;;;4978433;28;20437;-88
2021/09/06 08:39:11;;;;;;;1.27;0.90;;;21.70;99.90;;;;;;4978569;28;20799;-82
2021/09/06 08:41:39;;;;;;;1.37;1.23;;;21.90;99.90;;;;;;4977650;28;20417;-81
2021/09/06 08:44:06;;;;;;;1.37;0.97;;;22.20;99.90;;;;;;4977358;28;20493;-81
2021/09/06 08:46:33;;;;;;;2.13;1.03;;;22.30;99.90;;;;;;4977151;28;20811;-82
2021/09/06 08:49:00;;;;;;;3.60;1.50;;;22.30;99.90;;;;;;4977610;28;20437;-82
2021/09/06 08:51:29;;;;;;;1.17;1.07;;;22.40;99.90;;;;;;4977481;28;20452;-83
2021/09/06 08:53:55;;;;;;;2.13;1.10;;;22.30;99.90;;;;;;4977471;28;20503;-82
2021/09/06 08:56:22;;;;;;;2.20;1.27;;;22.40;99.90;;;;;;4977427;28;20452;-80
2021/09/06 08:58:49;;;;;;;1.67;1.00;;;22.50;99.90;;;;;;4977325;28;20420;-81
2021/09/06 09:01:16;;;;;;;3.70;1.83;;;22.50;99.90;;;;;;4977605;28;20476;-80
2021/09/06 09:03:42;;;;;;;1.60;1.20;;;22.80;99.90;;;;;;4977688;28;20492;-82
2021/09/06 09:06:09;;;;;;;2.50;1.37;;;23.10;99.90;;;;;;4977214;28;20441;-83
2021/09/06 09:08:39;;;;;;;3.10;1.80;;;23.40;99.90;;;;;;4977224;28;20448;-83
2021/09/06 09:11:09;;;;;;;2.20;1.00;;;23.60;99.90;;;;;;4978393;28;20448;-89
2021/09/06 09:13:38;;;;;;;2.30;1.70;;;23.50;99.90;;;;;;4978458;28;20453;-88
2021/09/06 09:16:07;;;;;;;3.63;1.57;;;23.70;99.90;;;;;;4978826;28;20637;-92
2021/09/06 09:18:35;;;;;;;1.92;1.35;;;23.80;99.50;;;;;;4978351;28;20209;-90
2021/09/06 09:21:06;;;;;;;1.03;0.87;;;23.90;99.90;;;;;;4978278;28;20190;-88
2021/09/06 09:23:43;;;;;;;1.67;1.40;;;24.30;97.60;;;;;;4977175;28;20641;-81
2021/09/06 09:26:10;;;;;;;2.45;1.27;;;24.40;96.40;;;;;;4977075;28;20547;-82
2021/09/06 09:28:40;;;;;;;2.22;1.20;;;24.50;95.80;;;;;;4976803;28;20197;-82
2021/09/06 09:31:09;;;;;;;2.22;1.75;;;24.60;95.80;;;;;;4976712;28;20193;-82
2021/09/06 09:33:44;;;;;;;1.40;1.17;;;24.70;94.80;;;;;;4976852;28;20233;-84
2021/09/06 09:36:11;;;;;;;1.85;1.33;;;24.90;94.30;;;;;;4976704;28;20284;-83
2021/09/06 09:38:38;;;;;;;2.63;1.35;;;25.00;94.00;;;;;;4976611;28;20197;-81
2021/09/06 09:41:14;;;;;;;2.10;1.88;;;25.20;94.00;;;;;;4976769;28;20200;-91
2021/09/06 09:43:42;;;;;;;1.25;0.90;;;25.30;94.40;;;;;;4978599;28;20232;-91
2021/09/06 09:46:09;;;;;;;2.50;1.58;;;25.50;93.50;;;;;;4976973;28;20186;-86
2021/09/06 09:48:36;;;;;;;1.50;1.38;;;25.80;93.30;;;;;;4977115;28;20274;-85
2021/09/06 09:51:03;;;;;;;5.03;1.52;;;25.80;93.70;;;;;;4977764;28;20200;-83
2021/09/06 09:53:30;;;;;;;1.50;1.40;;;25.80;93.10;;;;;;4976740;28;20778;-93
2021/09/06 09:55:58;;;;;;;3.38;1.20;;;25.90;92.90;;;;;;4977367;28;20190;-86
2021/09/06 09:58:26;;;;;;;1.60;1.25;;;25.90;92.50;;;;;;4976984;28;20194;-90
2021/09/06 10:00:55;;;;;;;2.78;1.70;;;25.60;92.40;;;;;;4977250;28;20186;-88
2021/09/06 10:03:25;;;;;;;1.50;1.20;;;25.50;92.40;;;;;;4976993;28;20236;-89
2021/09/06 10:05:53;;;;;;;2.22;1.40;;;25.50;93.10;;;;;;4977096;28;20210;-88
2021/09/06 10:08:21;;;;;;;1.25;1.02;;;25.40;93.90;;;;;;4977075;28;20296;-88
2021/09/06 10:10:48;;;;;;;1.95;1.33;;;25.50;93.00;;;;;;4976815;28;20193;-93
2021/09/06 10:13:16;;;;;;;2.22;1.70;;;25.40;93.00;;;;;;4977830;28;20225;-93
2021/09/06 10:15:56;;;;;;;1.02;0.93;;;25.40;93.40;;;;;;4978021;28;20538;-93
2021/09/06 10:18:24;;;;;;;1.85;1.50;;;25.40;93.60;;;;;;4977308;28;20186;-94
2021/09/06 10:20:53;;;;;;;1.88;1.20;;;25.40;89.50;;;;;;4977799;28;20526;-89
2021/09/06 10:23:21;;;;;;;1.95;1.65;;;25.50;90.90;;;;;;4977112;28;20588;-89
2021/09/06 10:25:49;;;;;;;3.20;1.20;;;25.40;92.20;;;;;;4977510;28;20209;-94
2021/09/06 10:28:16;;;;;;;2.05;1.85;;;25.50;91.50;;;;;;4977498;28;20185;-94
2021/09/06 10:30:47;;;;;;;1.27;1.13;;;25.60;91.10;;;;;;4976856;28;20209;-86
2021/09/06 10:33:29;;;;;;;2.42;1.45;;;25.80;90.90;;;;;;4976522;28;20229;-90
2021/09/06 10:36:06;;;;;;;1.85;1.20;;;25.80;91.60;;;;;;4976557;28;20190;-93
2021/09/06 10:38:38;;;;;;;3.70;2.10;;;25.80;90.90;;;;;;4976168;28;20196;-90
2021/09/06 10:41:14;;;;;;;1.33;1.23;;;25.80;90.00;;;;;;4976399;28;20634;-91
2021/09/06 10:43:46;;;;;;;1.67;1.30;;;25.90;88.30;;;;;;4977023;28;20232;-93
2021/09/06 10:46:17;;;;;;;1.45;1.17;;;25.90;89.00;;;;;;4976847;28;20210;-95
2021/09/06 10:48:45;;;;;;;3.25;1.52;;;25.80;89.60;;;;;;4977371;28;20194;-90
2021/09/06 10:51:12;;;;;;;4.25;1.58;;;25.80;87.50;;;;;;4976234;28;20190;-92
2021/09/06 10:53:40;;;;;;;3.90;1.35;;;25.90;87.10;;;;;;4976741;28;20236;-90
2021/09/06 10:56:08;;;;;;;1.77;1.67;;;26.20;86.10;;;;;;4976872;28;20186;-93
2021/09/06 10:58:35;;;;;;;2.47;1.48;;;26.40;90.20;;;;;;4976343;28;20220;-91
2021/09/06 11:01:04;;;;;;;1.35;1.20;;;26.80;86.30;;;;;;4976573;28;20189;-96
2021/09/06 11:03:37;;;;;;;3.55;1.50;;;27.10;84.30;;;;;;4975456;28;20642;-88
2021/09/06 11:06:04;;;;;;;3.55;1.92;;;27.10;83.20;;;;;;4974948;28;20670;-88
2021/09/06 11:08:32;;;;;;;1.55;1.42;;;26.90;82.10;;;;;;4974927;28;20554;-87
2021/09/06 11:11:01;;;;;;;1.90;1.60;;;26.60;80.70;;;;;;4975393;28;20362;-85
2021/09/06 11:13:33;;;;;;;2.20;1.27;;;26.20;80.70;;;;;;4975081;28;20252;-85
2021/09/06 11:16:00;;;;;;;1.35;1.25;;;26.00;83.20;;;;;;4974998;28;20186;-81
2021/09/06 11:18:32;;;;;;;1.70;1.48;;;25.80;83.60;;;;;;4974752;28;20194;-85
2021/09/06 11:21:01;;;;;;;2.63;1.88;;;25.70;82.60;;;;;;4975057;28;20189;-84
2021/09/06 11:23:33;;;;;;;2.90;0.98;;;25.80;82.20;;;;;;4974620;28;20650;-84
2021/09/06 11:26:00;;;;;;;1.92;1.80;;;25.60;82.00;;;;;;4974581;28;20268;-85
2021/09/06 11:28:27;;;;;;;1.17;1.08;;;25.30;82.70;;;;;;4975078;28;20205;-85
2021/09/06 11:30:55;;;;;;;1.35;1.25;;;25.30;82.70;;;;;;4974918;28;20256;-86
2021/09/06 11:33:22;;;;;;;4.13;1.50;;;25.30;84.40;;;;;;4974345;28;20228;-86
2021/09/06 11:35:50;;;;;;;1.55;1.13;;;25.30;82.00;;;;;;4975169;28;20182;-87
2021/09/06 11:38:18;;;;;;;2.05;1.52;;;25.20;83.00;;;;;;4974836;28;20213;-83
2021/09/06 11:40:53;;;;;;;1.85;1.10;;;25.10;86.50;;;;;;4974525;28;20201;-80
2021/09/06 11:43:20;;;;;;;1.63;1.52;;;25.10;82.30;;;;;;4974213;28;20783;-82
2021/09/06 11:45:48;;;;;;;1.05;0.95;;;25.20;81.40;;;;;;4975735;28;20229;-82
2021/09/06 11:48:15;;;;;;;1.80;1.23;;;25.10;78.90;;;;;;4978565;28;20198;-80
2021/09/06 11:50:43;;;;;;;1.30;1.20;;;25.10;80.40;;;;;;4978480;28;20212;-80
2021/09/06 11:53:12;;;;;;;1.20;1.10;;;25.20;78.40;;;;;;4978370;28;20212;-79
2021/09/06 11:55:51;;;;;;;1.48;1.38;;;25.10;73.70;;;;;;4978410;28;20208;-81
2021/09/06 11:58:17;;;;;;;1.77;1.38;;;25.20;77.40;;;;;;4978135;28;20185;-81
2021/09/06 12:00:44;;;;;;;1.60;1.30;;;24.90;77.90;;;;;;4978331;28;20208;-82
2021/09/06 12:03:11;;;;;;;2.78;1.52;;;25.00;77.30;;;;;;4978195;28;20209;-80
2021/09/06 12:05:40;;;;;;;2.33;1.10;;;24.90;78.40;;;;;;4978757;28;20252;-82
2021/09/06 12:08:12;;;;;;;1.50;1.02;;;24.90;76.10;;;;;;4978498;28;20197;-82
2021/09/06 12:10:42;;;;;;;1.55;1.35;;;24.90;77.30;;;;;;4978282;28;20193;-81
2021/09/06 12:13:11;;;;;;;2.83;1.17;;;24.70;77.20;;;;;;4977757;28;20669;-80
2021/09/06 12:15:52;;;;;;;2.50;2.03;;;24.60;79.30;;;;;;4977824;28;20206;-80
2021/09/06 12:18:19;;;;;;;1.35;1.00;;;24.60;78.20;;;;;;4978283;28;20531;-81
2021/09/06 12:20:46;;;;;;;1.25;1.15;;;24.60;78.20;;;;;;4977976;28;20209;-79
2021/09/06 12:23:14;;;;;;;2.10;1.02;;;24.50;76.90;;;;;;4977921;28;20233;-80
2021/09/06 12:25:42;;;;;;;4.43;1.88;;;24.40;77.60;;;;;;4977794;28;20229;-81
2021/09/06 12:28:11;;;;;;;2.95;1.25;;;24.30;76.50;;;;;;4977538;28;20213;-82
2021/09/06 12:30:39;;;;;;;1.25;0.98;;;24.10;77.00;;;;;;4977782;28;20209;-82
2021/09/06 12:33:07;;;;;;;1.10;0.95;;;24.10;76.20;;;;;;4977473;28;20699;-82
2021/09/06 12:35:33;;;;;;;1.33;1.10;;;24.10;76.30;;;;;;4977618;28;20233;-82
2021/09/06 12:38:00;;;;;;;1.95;1.23;;;24.00;78.20;;;;;;4977690;28;20224;-82
2021/09/06 12:40:27;;;;;;;1.63;1.20;;;23.90;79.50;;;;;;4977608;28;20550;-81
2021/09/06 12:42:55;;;;;;;2.70;1.33;;;23.80;78.90;;;;;;4977243;28;20591;-82
2021/09/06 12:45:22;;;;;;;3.78;1.25;;;23.80;80.20;;;;;;4977274;28;20221;-82
2021/09/06 12:47:48;;;;;;;1.37;1.00;;;23.80;79.40;;;;;;4977210;28;20704;-82
2021/09/06 12:50:15;;;;;;;3.10;1.10;;;23.80;81.20;;;;;;4977457;28;20205;-81
2021/09/06 12:52:42;;;;;;;1.30;1.20;;;23.80;81.60;;;;;;4977166;28;20205;-83